sensor_id;sensor_type;location;lat;lon;timestamp;temperature;humidity
68826;DHT22;55841;53.392;10.086;2022-07-29T00:00:54;13.80;71.30
68826;DHT22;55841;53.392;10.086;2022-07-29T00:03:19;13.80;72.00
68826;DHT22;55841;53.392;10.086;2022-07-29T00:05:45;13.70;72.40
68826;DHT22;55841;53.392;10.086;2022-07-29T00:08:10;13.70;72.50
68826;DHT22;55841;53.392;10.086;2022-07-29T00:10:36;13.60;72.60
68826;DHT22;55841;53.392;10.086;2022-07-29T00:13:02;13.60;73.10
68826;DHT22;55841;53.392;10.086;2022-07-29T00:15:27;13.60;72.80
68826;DHT22;55841;53.392;10.086;2022-07-29T00:17:53;13.60;72.70
68826;DHT22;55841;53.392;10.086;2022-07-29T00:20:19;13.50;73.10
68826;DHT22;55841;53.392;10.086;2022-07-29T00:22:45;13.50;73.30
68826;DHT22;55841;53.392;10.086;2022-07-29T00:25:12;13.40;73.10
68826;DHT22;55841;53.392;10.086;2022-07-29T00:27:38;13.40;73.30
68826;DHT22;55841;53.392;10.086;2022-07-29T00:30:05;13.30;73.40
68826;DHT22;55841;53.392;10.086;2022-07-29T00:32:31;13.30;73.90
68826;DHT22;55841;53.392;10.086;2022-07-29T00:34:56;13.20;74.10
68826;DHT22;55841;53.392;10.086;2022-07-29T00:37:22;13.10;74.50
68826;DHT22;55841;53.392;10.086;2022-07-29T00:39:47;13.10;74.60
68826;DHT22;55841;53.392;10.086;2022-07-29T00:42:13;13.00;74.90
68826;DHT22;55841;53.392;10.086;2022-07-29T00:44:39;13.00;75.00
68826;DHT22;55841;53.392;10.086;2022-07-29T00:47:05;12.90;75.10
68826;DHT22;55841;53.392;10.086;2022-07-29T00:49:32;12.90;75.70
68826;DHT22;55841;53.392;10.086;2022-07-29T00:51:57;12.90;75.40
68826;DHT22;55841;53.392;10.086;2022-07-29T00:54:23;12.90;75.60
68826;DHT22;55841;53.392;10.086;2022-07-29T00:56:49;12.90;74.90
68826;DHT22;55841;53.392;10.086;2022-07-29T00:59:15;12.80;75.20
68826;DHT22;55841;53.392;10.086;2022-07-29T01:01:41;12.80;75.90
68826;DHT22;55841;53.392;10.086;2022-07-29T01:04:06;12.80;75.60
68826;DHT22;55841;53.392;10.086;2022-07-29T01:06:32;12.80;76.00
68826;DHT22;55841;53.392;10.086;2022-07-29T01:08:58;12.80;75.90
68826;DHT22;55841;53.392;10.086;2022-07-29T01:11:24;12.80;75.60
68826;DHT22;55841;53.392;10.086;2022-07-29T01:13:50;12.80;75.80
68826;DHT22;55841;53.392;10.086;2022-07-29T01:16:31;12.80;76.00
68826;DHT22;55841;53.392;10.086;2022-07-29T01:19:13;12.80;76.30
68826;DHT22;55841;53.392;10.086;2022-07-29T01:21:56;12.80;76.20
68826;DHT22;55841;53.392;10.086;2022-07-29T01:29:52;12.70;76.50
68826;DHT22;55841;53.392;10.086;2022-07-29T01:32:22;12.70;76.70
68826;DHT22;55841;53.392;10.086;2022-07-29T01:35:45;12.80;76.20
68826;DHT22;55841;53.392;10.086;2022-07-29T01:37:57;12.70;76.70
68826;DHT22;55841;53.392;10.086;2022-07-29T01:40:46;12.70;76.40
68826;DHT22;55841;53.392;10.086;2022-07-29T01:43:22;12.70;76.70
68826;DHT22;55841;53.392;10.086;2022-07-29T01:51:18;12.80;77.00
68826;DHT22;55841;53.392;10.086;2022-07-29T01:54:02;12.80;76.90
68826;DHT22;55841;53.392;10.086;2022-07-29T01:56:31;12.90;76.60
68826;DHT22;55841;53.392;10.086;2022-07-29T01:58:58;12.90;76.10
68826;DHT22;55841;53.392;10.086;2022-07-29T02:01:25;12.90;76.60
68826;DHT22;55841;53.392;10.086;2022-07-29T02:03:53;12.90;76.30
68826;DHT22;55841;53.392;10.086;2022-07-29T02:06:21;13.00;76.00
68826;DHT22;55841;53.392;10.086;2022-07-29T02:08:49;13.00;76.30
68826;DHT22;55841;53.392;10.086;2022-07-29T02:11:15;13.00;76.10
68826;DHT22;55841;53.392;10.086;2022-07-29T02:13:41;13.00;75.90
68826;DHT22;55841;53.392;10.086;2022-07-29T02:16:07;13.00;76.10
68826;DHT22;55841;53.392;10.086;2022-07-29T02:18:36;13.00;75.90
68826;DHT22;55841;53.392;10.086;2022-07-29T02:21:03;13.10;75.50
68826;DHT22;55841;53.392;10.086;2022-07-29T02:23:30;13.00;75.70
68826;DHT22;55841;53.392;10.086;2022-07-29T02:25:57;13.00;75.90
68826;DHT22;55841;53.392;10.086;2022-07-29T02:28:27;13.00;75.90
68826;DHT22;55841;53.392;10.086;2022-07-29T02:30:55;13.00;75.80
68826;DHT22;55841;53.392;10.086;2022-07-29T02:33:21;13.00;75.70
68826;DHT22;55841;53.392;10.086;2022-07-29T02:35:50;13.00;76.00
68826;DHT22;55841;53.392;10.086;2022-07-29T02:38:16;13.00;76.00
68826;DHT22;55841;53.392;10.086;2022-07-29T02:40:43;13.00;76.20
68826;DHT22;55841;53.392;10.086;2022-07-29T02:43:09;12.90;76.10
68826;DHT22;55841;53.392;10.086;2022-07-29T02:45:34;12.90;76.30
68826;DHT22;55841;53.392;10.086;2022-07-29T02:48:06;12.90;76.50
68826;DHT22;55841;53.392;10.086;2022-07-29T02:50:36;12.90;76.60
68826;DHT22;55841;53.392;10.086;2022-07-29T02:53:09;12.90;76.70
68826;DHT22;55841;53.392;10.086;2022-07-29T02:55:51;12.80;76.90
68826;DHT22;55841;53.392;10.086;2022-07-29T03:00:53;12.80;77.00
68826;DHT22;55841;53.392;10.086;2022-07-29T03:03:19;12.80;76.70
68826;DHT22;55841;53.392;10.086;2022-07-29T03:05:45;12.80;76.60
68826;DHT22;55841;53.392;10.086;2022-07-29T03:08:12;12.80;76.70
68826;DHT22;55841;53.392;10.086;2022-07-29T03:10:44;12.80;76.90
68826;DHT22;55841;53.392;10.086;2022-07-29T03:13:10;12.80;76.90
68826;DHT22;55841;53.392;10.086;2022-07-29T03:15:37;12.90;76.70
68826;DHT22;55841;53.392;10.086;2022-07-29T03:18:02;12.90;76.80
68826;DHT22;55841;53.392;10.086;2022-07-29T03:20:29;12.90;76.70
68826;DHT22;55841;53.392;10.086;2022-07-29T03:22:54;12.90;76.80
68826;DHT22;55841;53.392;10.086;2022-07-29T03:25:20;12.90;76.60
68826;DHT22;55841;53.392;10.086;2022-07-29T03:27:47;12.90;76.90
68826;DHT22;55841;53.392;10.086;2022-07-29T03:30:13;12.90;76.80
68826;DHT22;55841;53.392;10.086;2022-07-29T03:32:40;12.90;77.20
68826;DHT22;55841;53.392;10.086;2022-07-29T03:35:06;12.90;77.40
68826;DHT22;55841;53.392;10.086;2022-07-29T03:37:32;12.90;77.50
68826;DHT22;55841;53.392;10.086;2022-07-29T03:39:58;12.90;77.40
68826;DHT22;55841;53.392;10.086;2022-07-29T03:42:30;12.80;77.40
68826;DHT22;55841;53.392;10.086;2022-07-29T03:44:57;12.80;77.40
68826;DHT22;55841;53.392;10.086;2022-07-29T03:47:25;12.90;77.60
68826;DHT22;55841;53.392;10.086;2022-07-29T03:49:52;12.90;77.60
68826;DHT22;55841;53.392;10.086;2022-07-29T03:52:20;12.90;77.10
68826;DHT22;55841;53.392;10.086;2022-07-29T03:54:46;12.90;77.30
68826;DHT22;55841;53.392;10.086;2022-07-29T03:57:13;12.90;77.60
68826;DHT22;55841;53.392;10.086;2022-07-29T03:59:40;12.90;77.70
68826;DHT22;55841;53.392;10.086;2022-07-29T04:02:09;12.90;77.70
68826;DHT22;55841;53.392;10.086;2022-07-29T04:04:36;12.90;77.60
68826;DHT22;55841;53.392;10.086;2022-07-29T04:07:02;13.00;77.30
68826;DHT22;55841;53.392;10.086;2022-07-29T04:09:27;13.00;77.60
68826;DHT22;55841;53.392;10.086;2022-07-29T04:11:53;13.00;77.60
68826;DHT22;55841;53.392;10.086;2022-07-29T04:14:18;13.00;77.50
68826;DHT22;55841;53.392;10.086;2022-07-29T04:16:44;13.00;77.60
68826;DHT22;55841;53.392;10.086;2022-07-29T04:19:10;13.00;78.00
68826;DHT22;55841;53.392;10.086;2022-07-29T04:21:39;13.10;77.90
68826;DHT22;55841;53.392;10.086;2022-07-29T04:24:06;13.10;77.70
68826;DHT22;55841;53.392;10.086;2022-07-29T04:26:32;13.10;77.80
68826;DHT22;55841;53.392;10.086;2022-07-29T04:28:57;13.10;78.00
68826;DHT22;55841;53.392;10.086;2022-07-29T04:31:23;13.10;78.00
68826;DHT22;55841;53.392;10.086;2022-07-29T04:33:48;13.20;78.10
68826;DHT22;55841;53.392;10.086;2022-07-29T04:36:14;13.20;77.90
68826;DHT22;55841;53.392;10.086;2022-07-29T04:38:39;13.20;78.10
68826;DHT22;55841;53.392;10.086;2022-07-29T04:41:05;13.30;78.10
68826;DHT22;55841;53.392;10.086;2022-07-29T04:43:32;13.30;78.10
68826;DHT22;55841;53.392;10.086;2022-07-29T04:45:58;13.30;77.90
68826;DHT22;55841;53.392;10.086;2022-07-29T04:48:23;13.40;78.10
68826;DHT22;55841;53.392;10.086;2022-07-29T04:50:49;13.40;78.10
68826;DHT22;55841;53.392;10.086;2022-07-29T04:53:14;13.40;78.20
68826;DHT22;55841;53.392;10.086;2022-07-29T04:55:40;13.50;78.60
68826;DHT22;55841;53.392;10.086;2022-07-29T04:58:05;13.60;78.70
68826;DHT22;55841;53.392;10.086;2022-07-29T05:00:31;13.70;78.30
68826;DHT22;55841;53.392;10.086;2022-07-29T05:02:56;13.70;78.20
68826;DHT22;55841;53.392;10.086;2022-07-29T05:05:22;13.80;77.90
68826;DHT22;55841;53.392;10.086;2022-07-29T05:07:47;13.90;77.60
68826;DHT22;55841;53.392;10.086;2022-07-29T05:10:13;13.90;78.00
68826;DHT22;55841;53.392;10.086;2022-07-29T05:12:38;13.90;77.80
68826;DHT22;55841;53.392;10.086;2022-07-29T05:15:04;14.00;77.80
68826;DHT22;55841;53.392;10.086;2022-07-29T05:17:30;14.10;77.40
68826;DHT22;55841;53.392;10.086;2022-07-29T05:19:55;14.10;77.50
68826;DHT22;55841;53.392;10.086;2022-07-29T05:22:21;14.20;77.20
68826;DHT22;55841;53.392;10.086;2022-07-29T05:24:47;14.20;77.40
68826;DHT22;55841;53.392;10.086;2022-07-29T05:27:13;14.30;77.20
68826;DHT22;55841;53.392;10.086;2022-07-29T05:29:38;14.40;77.50
68826;DHT22;55841;53.392;10.086;2022-07-29T05:32:04;14.50;77.50
68826;DHT22;55841;53.392;10.086;2022-07-29T05:34:32;14.50;77.10
68826;DHT22;55841;53.392;10.086;2022-07-29T05:36:58;14.70;76.80
68826;DHT22;55841;53.392;10.086;2022-07-29T05:39:24;14.80;76.10
68826;DHT22;55841;53.392;10.086;2022-07-29T05:41:49;14.90;75.40
68826;DHT22;55841;53.392;10.086;2022-07-29T05:44:15;15.00;74.90
68826;DHT22;55841;53.392;10.086;2022-07-29T05:46:40;15.10;73.90
68826;DHT22;55841;53.392;10.086;2022-07-29T05:49:06;15.30;73.70
68826;DHT22;55841;53.392;10.086;2022-07-29T05:51:32;15.40;73.50
68826;DHT22;55841;53.392;10.086;2022-07-29T05:53:58;15.50;73.10
68826;DHT22;55841;53.392;10.086;2022-07-29T05:56:24;15.60;72.70
68826;DHT22;55841;53.392;10.086;2022-07-29T05:58:50;15.60;72.20
68826;DHT22;55841;53.392;10.086;2022-07-29T06:01:15;15.70;72.10
68826;DHT22;55841;53.392;10.086;2022-07-29T06:03:41;15.70;71.30
68826;DHT22;55841;53.392;10.086;2022-07-29T06:06:07;15.80;70.90
68826;DHT22;55841;53.392;10.086;2022-07-29T06:11:04;15.90;71.00
68826;DHT22;55841;53.392;10.086;2022-07-29T06:13:30;16.00;71.10
68826;DHT22;55841;53.392;10.086;2022-07-29T06:15:55;16.10;71.10
68826;DHT22;55841;53.392;10.086;2022-07-29T06:18:25;16.10;71.00
68826;DHT22;55841;53.392;10.086;2022-07-29T06:24:17;16.30;71.00
68826;DHT22;55841;53.392;10.086;2022-07-29T06:26:43;16.30;71.50
68826;DHT22;55841;53.392;10.086;2022-07-29T06:29:14;-50.00;1.00
68826;DHT22;55841;53.392;10.086;2022-07-29T06:35:15;16.50;70.70
68826;DHT22;55841;53.392;10.086;2022-07-29T06:37:43;-50.00;1.00
68826;DHT22;55841;53.392;10.086;2022-07-29T06:40:09;-50.00;1.00
68826;DHT22;55841;53.392;10.086;2022-07-29T06:42:42;16.70;70.30
68826;DHT22;55841;53.392;10.086;2022-07-29T06:45:08;16.80;70.40
68826;DHT22;55841;53.392;10.086;2022-07-29T06:59:56;17.30;69.40
68826;DHT22;55841;53.392;10.086;2022-07-29T07:12:09;17.50;68.50
68826;DHT22;55841;53.392;10.086;2022-07-29T07:14:34;-50.00;1.00
68826;DHT22;55841;53.392;10.086;2022-07-29T07:17:00;-50.00;1.00
68826;DHT22;55841;53.392;10.086;2022-07-29T07:19:32;17.70;67.30
68826;DHT22;55841;53.392;10.086;2022-07-29T07:22:06;17.80;67.10
68826;DHT22;55841;53.392;10.086;2022-07-29T07:24:41;17.90;66.80
68826;DHT22;55841;53.392;10.086;2022-07-29T07:30:44;18.10;66.40
68826;DHT22;55841;53.392;10.086;2022-07-29T07:33:13;-50.00;1.00
68826;DHT22;55841;53.392;10.086;2022-07-29T07:35:41;-50.00;1.00
68826;DHT22;55841;53.392;10.086;2022-07-29T07:38:12;-50.00;1.00
68826;DHT22;55841;53.392;10.086;2022-07-29T07:40:43;18.70;65.20
68826;DHT22;55841;53.392;10.086;2022-07-29T07:43:19;18.70;65.30
68826;DHT22;55841;53.392;10.086;2022-07-29T07:46:03;-50.00;1.00
68826;DHT22;55841;53.392;10.086;2022-07-29T07:48:48;19.00;65.30
68826;DHT22;55841;53.392;10.086;2022-07-29T07:51:16;-50.00;1.00
68826;DHT22;55841;53.392;10.086;2022-07-29T07:53:41;19.20;63.70
68826;DHT22;55841;53.392;10.086;2022-07-29T07:56:36;19.30;63.10
68826;DHT22;55841;53.392;10.086;2022-07-29T07:59:02;19.30;63.00
68826;DHT22;55841;53.392;10.086;2022-07-29T08:05:04;-50.00;1.00
68826;DHT22;55841;53.392;10.086;2022-07-29T08:07:30;19.50;62.70
68826;DHT22;55841;53.392;10.086;2022-07-29T08:23:13;20.60;59.50
68826;DHT22;55841;53.392;10.086;2022-07-29T08:25:39;-50.00;1.00
68826;DHT22;55841;53.392;10.086;2022-07-29T08:28:08;-50.00;1.00
68826;DHT22;55841;53.392;10.086;2022-07-29T09:34:09;22.10;57.20
68826;DHT22;55841;53.392;10.086;2022-07-29T09:36:46;22.20;56.00
68826;DHT22;55841;53.392;10.086;2022-07-29T09:39:13;22.30;57.30
68826;DHT22;55841;53.392;10.086;2022-07-29T09:41:51;22.20;57.20
68826;DHT22;55841;53.392;10.086;2022-07-29T09:44:17;22.30;57.30
68826;DHT22;55841;53.392;10.086;2022-07-29T09:46:55;22.40;56.20
68826;DHT22;55841;53.392;10.086;2022-07-29T10:13:28;-50.00;1.00
68826;DHT22;55841;53.392;10.086;2022-07-29T10:15:58;-50.00;1.00
68826;DHT22;55841;53.392;10.086;2022-07-29T10:18:24;-50.00;1.00
68826;DHT22;55841;53.392;10.086;2022-07-29T10:20:58;24.80;52.00
68826;DHT22;55841;53.392;10.086;2022-07-29T10:47:32;25.30;46.80
68826;DHT22;55841;53.392;10.086;2022-07-29T10:50:03;25.40;46.50
68826;DHT22;55841;53.392;10.086;2022-07-29T10:53:01;25.40;46.50
68826;DHT22;55841;53.392;10.086;2022-07-29T10:55:56;25.50;45.40
68826;DHT22;55841;53.392;10.086;2022-07-29T10:58:23;25.50;45.50
68826;DHT22;55841;53.392;10.086;2022-07-29T11:00:50;25.50;45.40
68826;DHT22;55841;53.392;10.086;2022-07-29T11:03:46;25.60;46.30
68826;DHT22;55841;53.392;10.086;2022-07-29T11:06:13;25.80;44.20
68826;DHT22;55841;53.392;10.086;2022-07-29T11:08:39;26.00;44.70
68826;DHT22;55841;53.392;10.086;2022-07-29T11:13:47;26.80;41.70
68826;DHT22;55841;53.392;10.086;2022-07-29T11:16:14;27.00;40.00
68826;DHT22;55841;53.392;10.086;2022-07-29T11:21:38;27.50;40.60
68826;DHT22;55841;53.392;10.086;2022-07-29T11:24:28;27.60;40.40
68826;DHT22;55841;53.392;10.086;2022-07-29T11:27:12;27.70;40.70
68826;DHT22;55841;53.392;10.086;2022-07-29T11:29:55;27.60;40.10
68826;DHT22;55841;53.392;10.086;2022-07-29T12:33:26;29.60;37.20
68826;DHT22;55841;53.392;10.086;2022-07-29T12:49:35;29.30;36.60
68826;DHT22;55841;53.392;10.086;2022-07-29T12:52:28;29.50;36.10
68826;DHT22;55841;53.392;10.086;2022-07-29T13:06:29;30.40;36.20
68826;DHT22;55841;53.392;10.086;2022-07-29T13:13:49;30.30;35.80
68826;DHT22;55841;53.392;10.086;2022-07-29T13:20:07;29.50;36.40
68826;DHT22;55841;53.392;10.086;2022-07-29T13:26:09;29.30;36.20
68826;DHT22;55841;53.392;10.086;2022-07-29T13:28:46;29.30;37.10
68826;DHT22;55841;53.392;10.086;2022-07-29T13:31:14;29.50;36.40
68826;DHT22;55841;53.392;10.086;2022-07-29T13:33:40;29.90;36.50
68826;DHT22;55841;53.392;10.086;2022-07-29T13:36:05;30.30;35.60
68826;DHT22;55841;53.392;10.086;2022-07-29T13:38:31;30.60;35.80
68826;DHT22;55841;53.392;10.086;2022-07-29T13:40:57;30.80;35.30
68826;DHT22;55841;53.392;10.086;2022-07-29T13:43:22;30.80;34.60
68826;DHT22;55841;53.392;10.086;2022-07-29T13:45:48;30.60;34.90
68826;DHT22;55841;53.392;10.086;2022-07-29T13:48:14;30.80;34.60
68826;DHT22;55841;53.392;10.086;2022-07-29T13:50:39;31.00;35.30
68826;DHT22;55841;53.392;10.086;2022-07-29T13:53:05;31.50;34.40
68826;DHT22;55841;53.392;10.086;2022-07-29T13:55:30;31.90;34.40
68826;DHT22;55841;53.392;10.086;2022-07-29T13:57:56;32.30;32.90
68826;DHT22;55841;53.392;10.086;2022-07-29T14:00:21;32.70;32.70
68826;DHT22;55841;53.392;10.086;2022-07-29T14:02:47;32.90;32.30
68826;DHT22;55841;53.392;10.086;2022-07-29T14:05:13;33.10;31.70
68826;DHT22;55841;53.392;10.086;2022-07-29T14:07:38;33.30;32.60
68826;DHT22;55841;53.392;10.086;2022-07-29T14:10:04;33.10;31.30
68826;DHT22;55841;53.392;10.086;2022-07-29T14:12:30;33.30;31.50
68826;DHT22;55841;53.392;10.086;2022-07-29T14:14:56;33.40;31.80
68826;DHT22;55841;53.392;10.086;2022-07-29T14:17:22;33.50;31.00
68826;DHT22;55841;53.392;10.086;2022-07-29T14:19:47;33.40;31.20
68826;DHT22;55841;53.392;10.086;2022-07-29T14:22:13;33.40;31.10
68826;DHT22;55841;53.392;10.086;2022-07-29T14:24:39;33.50;31.10
68826;DHT22;55841;53.392;10.086;2022-07-29T14:27:05;33.60;31.60
68826;DHT22;55841;53.392;10.086;2022-07-29T14:29:31;33.80;30.70
68826;DHT22;55841;53.392;10.086;2022-07-29T14:31:56;33.90;30.70
68826;DHT22;55841;53.392;10.086;2022-07-29T14:34:22;34.00;31.40
68826;DHT22;55841;53.392;10.086;2022-07-29T14:36:47;34.20;30.90
68826;DHT22;55841;53.392;10.086;2022-07-29T14:39:16;34.30;30.60
68826;DHT22;55841;53.392;10.086;2022-07-29T14:41:42;34.30;30.80
68826;DHT22;55841;53.392;10.086;2022-07-29T14:44:08;34.00;30.60
68826;DHT22;55841;53.392;10.086;2022-07-29T14:46:33;33.50;31.00
68826;DHT22;55841;53.392;10.086;2022-07-29T14:48:59;33.40;30.90
68826;DHT22;55841;53.392;10.086;2022-07-29T14:51:24;33.50;31.10
68826;DHT22;55841;53.392;10.086;2022-07-29T14:53:50;33.60;30.70
68826;DHT22;55841;53.392;10.086;2022-07-29T14:56:16;33.70;31.60
68826;DHT22;55841;53.392;10.086;2022-07-29T14:58:41;33.80;33.20
68826;DHT22;55841;53.392;10.086;2022-07-29T15:01:10;33.80;34.40
68826;DHT22;55841;53.392;10.086;2022-07-29T15:03:35;33.50;35.20
68826;DHT22;55841;53.392;10.086;2022-07-29T15:06:01;33.50;35.80
68826;DHT22;55841;53.392;10.086;2022-07-29T15:08:26;33.40;35.50
68826;DHT22;55841;53.392;10.086;2022-07-29T15:10:52;33.40;35.80
68826;DHT22;55841;53.392;10.086;2022-07-29T15:13:17;33.40;35.50
68826;DHT22;55841;53.392;10.086;2022-07-29T15:15:43;33.50;35.90
68826;DHT22;55841;53.392;10.086;2022-07-29T15:18:08;33.70;35.90
68826;DHT22;55841;53.392;10.086;2022-07-29T15:20:34;33.80;35.70
68826;DHT22;55841;53.392;10.086;2022-07-29T15:22:59;33.70;35.30
68826;DHT22;55841;53.392;10.086;2022-07-29T15:25:25;33.20;35.70
68826;DHT22;55841;53.392;10.086;2022-07-29T15:27:51;32.70;36.20
68826;DHT22;55841;53.392;10.086;2022-07-29T15:30:16;32.20;36.90
68826;DHT22;55841;53.392;10.086;2022-07-29T15:32:45;31.40;37.20
68826;DHT22;55841;53.392;10.086;2022-07-29T15:35:11;30.70;38.60
68826;DHT22;55841;53.392;10.086;2022-07-29T15:37:37;30.10;39.60
68826;DHT22;55841;53.392;10.086;2022-07-29T15:40:04;29.70;40.40
68826;DHT22;55841;53.392;10.086;2022-07-29T15:42:30;29.20;41.10
68826;DHT22;55841;53.392;10.086;2022-07-29T15:44:55;28.90;41.30
68826;DHT22;55841;53.392;10.086;2022-07-29T15:47:21;28.60;41.80
68826;DHT22;55841;53.392;10.086;2022-07-29T15:49:46;28.50;42.80
68826;DHT22;55841;53.392;10.086;2022-07-29T15:52:12;28.30;43.40
68826;DHT22;55841;53.392;10.086;2022-07-29T15:54:38;28.20;44.20
68826;DHT22;55841;53.392;10.086;2022-07-29T15:57:05;28.10;43.80
68826;DHT22;55841;53.392;10.086;2022-07-29T15:59:31;28.00;44.00
68826;DHT22;55841;53.392;10.086;2022-07-29T16:01:58;28.10;43.70
68826;DHT22;55841;53.392;10.086;2022-07-29T16:04:23;28.60;43.70
68826;DHT22;55841;53.392;10.086;2022-07-29T16:06:49;29.30;42.80
68826;DHT22;55841;53.392;10.086;2022-07-29T16:09:16;29.60;42.20
68826;DHT22;55841;53.392;10.086;2022-07-29T16:11:42;29.50;42.30
68826;DHT22;55841;53.392;10.086;2022-07-29T16:14:09;29.30;43.10
68826;DHT22;55841;53.392;10.086;2022-07-29T16:16:34;29.10;43.10
68826;DHT22;55841;53.392;10.086;2022-07-29T16:29:56;29.90;42.30
68826;DHT22;55841;53.392;10.086;2022-07-29T16:32:47;29.60;41.90
68826;DHT22;55841;53.392;10.086;2022-07-29T16:35:15;29.00;42.70
68826;DHT22;55841;53.392;10.086;2022-07-29T16:37:49;-50.00;1.00
68826;DHT22;55841;53.392;10.086;2022-07-29T16:40:25;28.10;43.80
68826;DHT22;55841;53.392;10.086;2022-07-29T16:43:03;27.70;44.90
68826;DHT22;55841;53.392;10.086;2022-07-29T16:45:29;27.60;45.30
68826;DHT22;55841;53.392;10.086;2022-07-29T16:48:00;27.50;45.60
68826;DHT22;55841;53.392;10.086;2022-07-29T16:50:40;27.30;45.70
68826;DHT22;55841;53.392;10.086;2022-07-29T16:53:40;27.00;46.30
68826;DHT22;55841;53.392;10.086;2022-07-29T16:56:36;26.60;47.00
68826;DHT22;55841;53.392;10.086;2022-07-29T16:59:38;26.40;47.50
68826;DHT22;55841;53.392;10.086;2022-07-29T17:02:21;26.50;47.70
68826;DHT22;55841;53.392;10.086;2022-07-29T17:05:24;26.60;47.50
68826;DHT22;55841;53.392;10.086;2022-07-29T17:08:32;26.70;47.80
68826;DHT22;55841;53.392;10.086;2022-07-29T17:14:43;27.00;47.10
68826;DHT22;55841;53.392;10.086;2022-07-29T17:20:19;26.70;48.00
68826;DHT22;55841;53.392;10.086;2022-07-29T17:23:20;-50.00;1.00
68826;DHT22;55841;53.392;10.086;2022-07-29T17:26:33;26.60;48.50
68826;DHT22;55841;53.392;10.086;2022-07-29T17:32:33;27.50;48.00
68826;DHT22;55841;53.392;10.086;2022-07-29T17:35:10;27.00;48.90
68826;DHT22;55841;53.392;10.086;2022-07-29T17:38:11;-50.00;1.00
68826;DHT22;55841;53.392;10.086;2022-07-29T17:44:46;26.30;50.90
68826;DHT22;55841;53.392;10.086;2022-07-29T17:50:42;25.80;52.10
68826;DHT22;55841;53.392;10.086;2022-07-29T18:05:55;24.60;54.70
68826;DHT22;55841;53.392;10.086;2022-07-29T18:08:41;24.40;55.10
68826;DHT22;55841;53.392;10.086;2022-07-29T18:11:06;24.20;55.50
68826;DHT22;55841;53.392;10.086;2022-07-29T18:13:32;24.00;55.70
68826;DHT22;55841;53.392;10.086;2022-07-29T18:15:57;23.90;56.10
68826;DHT22;55841;53.392;10.086;2022-07-29T18:18:23;23.80;56.40
68826;DHT22;55841;53.392;10.086;2022-07-29T18:20:48;23.60;56.40
68826;DHT22;55841;53.392;10.086;2022-07-29T18:23:14;23.50;56.90
68826;DHT22;55841;53.392;10.086;2022-07-29T18:25:40;23.40;57.50
68826;DHT22;55841;53.392;10.086;2022-07-29T18:28:05;23.20;57.60
68826;DHT22;55841;53.392;10.086;2022-07-29T18:30:31;23.00;57.80
68826;DHT22;55841;53.392;10.086;2022-07-29T18:32:57;23.00;58.00
68826;DHT22;55841;53.392;10.086;2022-07-29T18:35:22;22.90;58.00
68826;DHT22;55841;53.392;10.086;2022-07-29T18:37:51;22.80;58.20
68826;DHT22;55841;53.392;10.086;2022-07-29T18:40:17;22.70;58.20
68826;DHT22;55841;53.392;10.086;2022-07-29T18:42:43;22.70;58.60
68826;DHT22;55841;53.392;10.086;2022-07-29T18:45:08;22.50;58.60
68826;DHT22;55841;53.392;10.086;2022-07-29T18:47:34;22.40;58.80
68826;DHT22;55841;53.392;10.086;2022-07-29T18:50:00;22.30;59.10
68826;DHT22;55841;53.392;10.086;2022-07-29T18:52:25;22.30;59.40
68826;DHT22;55841;53.392;10.086;2022-07-29T18:54:51;22.20;59.80
68826;DHT22;55841;53.392;10.086;2022-07-29T18:57:16;22.10;59.80
68826;DHT22;55841;53.392;10.086;2022-07-29T19:02:17;22.00;60.30
68826;DHT22;55841;53.392;10.086;2022-07-29T19:04:43;21.90;60.70
68826;DHT22;55841;53.392;10.086;2022-07-29T19:07:08;21.90;61.00
68826;DHT22;55841;53.392;10.086;2022-07-29T19:09:45;21.80;61.20
68826;DHT22;55841;53.392;10.086;2022-07-29T19:12:23;21.80;61.30
68826;DHT22;55841;53.392;10.086;2022-07-29T19:14:48;21.70;61.60
68826;DHT22;55841;53.392;10.086;2022-07-29T19:17:14;21.60;61.90
68826;DHT22;55841;53.392;10.086;2022-07-29T19:19:39;21.60;62.30
68826;DHT22;55841;53.392;10.086;2022-07-29T19:22:05;21.50;62.60
68826;DHT22;55841;53.392;10.086;2022-07-29T19:24:30;21.40;62.60
68826;DHT22;55841;53.392;10.086;2022-07-29T19:26:56;21.40;62.70
68826;DHT22;55841;53.392;10.086;2022-07-29T19:39:03;21.20;63.80
68826;DHT22;55841;53.392;10.086;2022-07-29T19:41:34;20.90;64.30
68826;DHT22;55841;53.392;10.086;2022-07-29T19:44:13;20.80;64.70
68826;DHT22;55841;53.392;10.086;2022-07-29T19:46:56;20.70;65.10
68826;DHT22;55841;53.392;10.086;2022-07-29T19:49:38;-50.00;1.00
68826;DHT22;55841;53.392;10.086;2022-07-29T19:52:13;-50.00;1.00
68826;DHT22;55841;53.392;10.086;2022-07-29T19:55:02;20.70;66.10
68826;DHT22;55841;53.392;10.086;2022-07-29T19:57:30;20.40;66.70
68826;DHT22;55841;53.392;10.086;2022-07-29T20:00:03;20.30;67.20
68826;DHT22;55841;53.392;10.086;2022-07-29T20:02:29;20.30;67.50
68826;DHT22;55841;53.392;10.086;2022-07-29T20:04:55;20.20;68.00
68826;DHT22;55841;53.392;10.086;2022-07-29T20:07:20;20.20;68.50
68826;DHT22;55841;53.392;10.086;2022-07-29T20:09:46;20.10;68.90
68826;DHT22;55841;53.392;10.086;2022-07-29T20:12:12;20.00;69.10
68826;DHT22;55841;53.392;10.086;2022-07-29T20:14:37;20.00;69.50
68826;DHT22;55841;53.392;10.086;2022-07-29T20:17:03;20.00;69.50
68826;DHT22;55841;53.392;10.086;2022-07-29T20:19:29;19.90;69.60
68826;DHT22;55841;53.392;10.086;2022-07-29T20:21:54;19.90;69.70
68826;DHT22;55841;53.392;10.086;2022-07-29T20:24:20;19.80;69.90
68826;DHT22;55841;53.392;10.086;2022-07-29T20:26:46;19.80;69.90
68826;DHT22;55841;53.392;10.086;2022-07-29T20:29:12;19.70;70.10
68826;DHT22;55841;53.392;10.086;2022-07-29T20:31:37;19.70;70.30
68826;DHT22;55841;53.392;10.086;2022-07-29T20:34:03;19.60;70.40
68826;DHT22;55841;53.392;10.086;2022-07-29T20:36:29;19.60;70.70
68826;DHT22;55841;53.392;10.086;2022-07-29T20:39:02;19.60;71.00
68826;DHT22;55841;53.392;10.086;2022-07-29T20:41:56;19.70;71.10
68826;DHT22;55841;53.392;10.086;2022-07-29T20:48:17;19.40;71.10
68826;DHT22;55841;53.392;10.086;2022-07-29T20:51:49;19.50;71.60
68826;DHT22;55841;53.392;10.086;2022-07-29T20:54:46;19.30;71.90
68826;DHT22;55841;53.392;10.086;2022-07-29T21:00:26;19.20;72.00
68826;DHT22;55841;53.392;10.086;2022-07-29T21:02:59;19.10;72.40
68826;DHT22;55841;53.392;10.086;2022-07-29T21:05:27;19.10;72.40
68826;DHT22;55841;53.392;10.086;2022-07-29T21:07:53;19.00;72.60
68826;DHT22;55841;53.392;10.086;2022-07-29T21:10:21;19.00;73.10